Time;durP1;ratioP1;P1;durP2;ratioP2;P2;SDS_P1;SDS_P2;PMS_P1;PMS_P2;Temp;Humidity;BMP_temperature;BMP_pressure;BME280_temperature;BME280_humidity;BME280_pressure;Samples;Min_cycle;Max_cycle;Signal;HPM_P1;HPM_P2
2022/06/21 00:01:18;;;;;;;;;;;26.10;95.80;;;;;;5074473;28;19919;-53
2022/06/21 00:03:44;;;;;;;;;;;26.10;95.80;;;;;;5074447;28;19909;-56
2022/06/21 00:06:15;;;;;;;;;;;26.10;95.80;;;;;;5074057;28;19908;-55
2022/06/21 00:08:40;;;;;;;;;;;26.10;95.80;;;;;;5074601;28;19995;-53
2022/06/21 00:11:24;;;;;;;;;;;26.10;95.80;;;;;;5074324;28;19965;-53
2022/06/21 00:13:50;;;;;;;;;;;26.10;95.80;;;;;;5074303;28;19909;-52
2022/06/21 00:16:16;;;;;;;;;;;26.10;95.80;;;;;;5074011;28;20371;-51
2022/06/21 00:18:43;;;;;;;;;;;26.10;95.80;;;;;;5074319;28;19966;-53
2022/06/21 00:21:11;;;;;;;;;;;26.10;95.80;;;;;;5056441;28;19959;-54
2022/06/21 00:23:37;;;;;;;;;;;26.10;95.80;;;;;;5074638;28;19908;-54
2022/06/21 00:26:02;;;;;;;;;;;26.10;95.80;;;;;;5074199;28;19908;-54
2022/06/21 00:28:28;;;;;;;;;;;26.10;95.80;;;;;;5074086;28;19944;-55
2022/06/21 00:30:54;;;;;;;;;;;26.00;95.80;;;;;;5073777;28;20255;-55
2022/06/21 00:33:24;;;;;;;;;;;26.10;95.80;;;;;;5074034;28;19909;-53
2022/06/21 00:35:53;;;;;;;;;;;26.10;95.90;;;;;;5074029;28;19909;-52
2022/06/21 00:38:25;;;;;;;;;;;26.00;95.80;;;;;;5055971;28;19912;-52
2022/06/21 00:40:51;;;;;;;;;;;26.10;95.90;;;;;;5073863;28;19912;-52
2022/06/21 00:43:18;;;;;;;;;;;26.00;95.80;;;;;;5076567;28;20007;-48
2022/06/21 00:45:44;;;;;;;;;;;26.10;95.80;;;;;;5060208;28;19909;-53
2022/06/21 00:48:13;;;;;;;;;;;26.00;95.80;;;;;;5077724;28;19916;-52
2022/06/21 00:50:41;;;;;;;;;;;26.00;95.80;;;;;;5077925;28;19962;-53
2022/06/21 00:53:19;;;;;;;;;;;26.00;95.80;;;;;;5077616;28;20015;-55
2022/06/21 00:55:54;;;;;;;;;;;26.10;95.90;;;;;;5077662;28;20362;-54
2022/06/21 00:58:21;;;;;;;;;;;26.00;95.80;;;;;;5077410;28;20390;-54
2022/06/21 01:00:53;;;;;;;;;;;26.10;96.10;;;;;;5077821;28;19912;-52
2022/06/21 01:03:20;;;;;;;;;;;26.10;95.90;;;;;;5077540;28;20007;-54
2022/06/21 01:05:45;;;;;;;;;;;26.00;95.80;;;;;;5059652;28;19991;-55
2022/06/21 01:08:15;;;;;;;;;;;26.00;95.90;;;;;;5077663;28;19958;-53
2022/06/21 01:10:41;;;;;;;;;;;26.00;95.80;;;;;;5077683;28;19915;-52
2022/06/21 01:13:12;;;;;;;;;;;26.00;95.80;;;;;;5077240;28;19913;-51
2022/06/21 01:15:40;;;;;;;;;;;26.00;95.80;;;;;;5059418;28;19909;-51
2022/06/21 01:18:07;;;;;;;;;;;26.00;95.90;;;;;;5077033;28;19912;-52
2022/06/21 01:20:34;;;;;;;;;;;26.00;95.80;;;;;;5077432;28;20351;-55
2022/06/21 01:23:20;;;;;;;;;;;26.00;95.80;;;;;;5076994;28;19961;-52
2022/06/21 01:25:46;;;;;;;;;;;26.00;95.80;;;;;;5077199;28;19908;-55
2022/06/21 01:28:11;;;;;;;;;;;26.00;95.90;;;;;;5076976;28;20377;-54
2022/06/21 01:30:37;;;;;;;;;;;26.00;95.80;;;;;;5077057;28;19915;-50
2022/06/21 01:33:03;;;;;;;;;;;26.00;95.70;;;;;;5077164;28;19915;-54
2022/06/21 01:35:35;;;;;;;;;;;26.00;95.70;;;;;;5077070;28;19909;-55
2022/06/21 01:38:03;;;;;;;;;;;26.00;95.70;;;;;;5076935;28;19913;-54
2022/06/21 01:40:30;;;;;;;;;;;26.00;95.70;;;;;;5076832;28;20007;-53
2022/06/21 01:43:01;;;;;;;;;;;26.00;95.70;;;;;;5077059;28;19982;-52
2022/06/21 01:45:28;;;;;;;;;;;26.00;95.80;;;;;;5076896;28;19935;-54
2022/06/21 01:48:14;;;;;;;;;;;26.00;95.80;;;;;;5076551;28;20303;-55
2022/06/21 01:50:40;;;;;;;;;;;26.00;95.70;;;;;;5076520;28;19908;-54
2022/06/21 01:53:08;;;;;;;;;;;25.90;95.70;;;;;;5076944;28;19913;-55
2022/06/21 01:55:45;;;;;;;;;;;25.90;95.60;;;;;;5076811;28;19920;-50
2022/06/21 01:58:32;;;;;;;;;;;25.90;95.70;;;;;;5076648;28;20006;-50
2022/06/21 02:00:59;;;;;;;;;;;26.00;95.80;;;;;;5076815;28;19959;-50
2022/06/21 02:03:28;;;;;;;;;;;25.90;95.50;;;;;;5076431;28;19908;-55
2022/06/21 02:05:55;;;;;;;;;;;25.90;95.80;;;;;;5076327;28;19912;-55
2022/06/21 02:08:24;;;;;;;;;;;25.90;95.70;;;;;;5076605;28;19962;-51
2022/06/21 02:11:00;;;;;;;;;;;25.90;95.80;;;;;;5076746;28;20346;-52
2022/06/21 02:13:41;;;;;;;;;;;25.90;95.80;;;;;;5076448;28;19912;-55
2022/06/21 02:16:08;;;;;;;;;;;25.90;95.80;;;;;;5058406;28;19912;-54
2022/06/21 02:18:39;;;;;;;;;;;25.90;95.70;;;;;;5076222;28;19987;-53
2022/06/21 02:21:07;;;;;;;;;;;25.90;95.60;;;;;;5076315;28;19912;-54
2022/06/21 02:23:32;;;;;;;;;;;25.90;95.80;;;;;;5075866;28;20406;-50
2022/06/21 02:25:58;;;;;;;;;;;25.90;95.80;;;;;;5076155;28;19913;-54
2022/06/21 02:28:25;;;;;;;;;;;25.90;95.80;;;;;;5058151;28;19909;-52
2022/06/21 02:30:52;;;;;;;;;;;25.90;95.80;;;;;;5075846;28;19915;-53
2022/06/21 02:33:19;;;;;;;;;;;25.90;95.60;;;;;;5075692;28;19951;-53
2022/06/21 02:36:03;;;;;;;;;;;25.90;95.60;;;;;;5075889;28;20286;-55
2022/06/21 02:38:55;;;;;;;;;;;25.90;95.50;;;;;;5075551;28;19913;-50
2022/06/21 02:41:24;;;;;;;;;;;25.90;95.60;;;;;;5070774;28;19963;-50
2022/06/21 02:43:52;;;;;;;;;;;25.90;95.60;;;;;;5075586;28;20007;-53
2022/06/21 02:46:24;;;;;;;;;;;25.90;95.70;;;;;;5075877;28;20267;-52
2022/06/21 02:48:53;;;;;;;;;;;25.90;95.70;;;;;;5075772;28;19950;-53
2022/06/21 02:51:23;;;;;;;;;;;25.90;95.70;;;;;;5075435;28;19916;-51
2022/06/21 02:53:55;;;;;;;;;;;25.90;95.80;;;;;;5075378;28;19909;-53
2022/06/21 02:56:23;;;;;;;;;;;25.90;95.60;;;;;;5075590;28;20007;-54
2022/06/21 02:58:51;;;;;;;;;;;25.80;95.70;;;;;;5075156;28;19916;-54
2022/06/21 03:01:28;;;;;;;;;;;25.90;95.70;;;;;;5075522;28;19916;-54
2022/06/21 03:03:55;;;;;;;;;;;25.80;95.70;;;;;;5075392;28;19909;-52
2022/06/21 03:06:21;;;;;;;;;;;25.80;95.60;;;;;;5075114;28;20347;-54
2022/06/21 03:18:04;;;;;;;;;;;25.80;95.70;;;;;;5074843;28;19939;-53
2022/06/21 03:20:30;;;;;;;;;;;25.80;95.60;;;;;;5074880;28;19913;-53
2022/06/21 03:22:56;;;;;;;;;;;25.80;95.80;;;;;;5075018;28;19912;-52
2022/06/21 03:25:21;;;;;;;;;;;25.80;95.80;;;;;;5074606;28;19915;-54
2022/06/21 03:27:47;;;;;;;;;;;25.80;95.80;;;;;;5074889;28;20346;-55
2022/06/21 03:30:13;;;;;;;;;;;25.80;95.70;;;;;;5074861;28;19987;-52
2022/06/21 03:32:38;;;;;;;;;;;25.80;95.70;;;;;;5074733;28;19916;-52
2022/06/21 03:35:05;;;;;;;;;;;25.80;95.80;;;;;;5074758;28;19913;-54
2022/06/21 03:37:30;;;;;;;;;;;25.80;95.70;;;;;;5074649;28;19916;-54
2022/06/21 03:42:44;;;;;;;;;;;25.80;95.60;;;;;;5074509;28;19916;-54
2022/06/21 03:45:12;;;;;;;;;;;25.80;95.70;;;;;;5074572;28;20003;-51
2022/06/21 03:47:51;;;;;;;;;;;25.80;95.50;;;;;;5074605;28;19908;-54
2022/06/21 03:50:19;;;;;;;;;;;25.80;95.60;;;;;;5074371;28;20219;-54
2022/06/21 03:52:53;;;;;;;;;;;25.80;95.50;;;;;;5074555;28;20007;-53
2022/06/21 03:55:18;;;;;;;;;;;25.80;95.40;;;;;;5074368;28;20083;-53
2022/06/21 03:57:47;;;;;;;;;;;25.80;95.50;;;;;;5074108;28;20423;-50
2022/06/21 04:00:13;;;;;;;;;;;25.80;95.50;;;;;;5074417;28;19912;-52
2022/06/21 04:02:45;;;;;;;;;;;25.80;95.40;;;;;;5074083;28;20282;-54
2022/06/21 04:05:18;;;;;;;;;;;25.80;95.50;;;;;;5074096;28;20101;-51
2022/06/21 04:07:44;;;;;;;;;;;25.80;95.40;;;;;;5055957;28;19916;-54
2022/06/21 04:10:16;;;;;;;;;;;25.70;95.70;;;;;;5074234;28;19908;-55
2022/06/21 04:12:46;;;;;;;;;;;25.70;95.70;;;;;;5074257;28;20047;-52
2022/06/21 04:15:18;;;;;;;;;;;25.80;95.70;;;;;;5074096;28;19908;-54
2022/06/21 04:18:03;;;;;;;;;;;25.80;95.60;;;;;;5073365;28;19913;-51
2022/06/21 04:20:32;;;;;;;;;;;25.80;95.70;;;;;;5056240;28;19919;-51
2022/06/21 04:23:08;;;;;;;;;;;25.80;95.60;;;;;;5073998;28;19915;-52
2022/06/21 04:25:46;;;;;;;;;;;25.70;95.50;;;;;;5074184;28;20338;-52
2022/06/21 04:28:27;;;;;;;;;;;25.70;95.50;;;;;;5074041;28;19916;-54
2022/06/21 04:31:02;;;;;;;;;;;25.70;95.40;;;;;;5074055;28;19908;-56
2022/06/21 04:33:31;;;;;;;;;;;25.70;95.40;;;;;;5073594;28;20035;-54
2022/06/21 04:36:19;;;;;;;;;;;25.70;95.50;;;;;;5073881;28;19916;-51
2022/06/21 04:38:52;;;;;;;;;;;25.70;95.60;;;;;;5073638;28;20321;-53
2022/06/21 04:41:24;;;;;;;;;;;25.70;95.80;;;;;;5073857;28;20007;-54
2022/06/21 04:44:04;;;;;;;;;;;25.70;95.80;;;;;;5073749;28;19954;-56
2022/06/21 04:46:34;;;;;;;;;;;25.70;95.60;;;;;;5073892;28;19908;-54
2022/06/21 04:49:04;;;;;;;;;;;25.70;95.70;;;;;;5073912;28;19915;-54
2022/06/21 04:51:34;;;;;;;;;;;25.70;95.80;;;;;;5073723;28;20015;-56
2022/06/21 04:54:04;;;;;;;;;;;25.70;95.60;;;;;;5073816;28;19908;-53
2022/06/21 04:56:46;;;;;;;;;;;25.70;95.60;;;;;;5073316;28;19921;-55
2022/06/21 04:59:34;;;;;;;;;;;25.70;95.60;;;;;;5073391;28;20046;-54
2022/06/21 05:02:00;;;;;;;;;;;25.70;95.80;;;;;;5058680;28;20422;-52
2022/06/21 05:04:28;;;;;;;;;;;25.70;95.70;;;;;;5073247;28;19965;-52
2022/06/21 05:06:56;;;;;;;;;;;25.70;95.60;;;;;;5073058;28;19916;-54
2022/06/21 05:09:23;;;;;;;;;;;25.70;95.70;;;;;;5073178;28;20035;-54
2022/06/21 05:11:53;;;;;;;;;;;25.70;95.80;;;;;;5055306;28;19951;-55
2022/06/21 05:14:21;;;;;;;;;;;25.70;95.80;;;;;;5073189;28;20381;-54
2022/06/21 05:16:48;;;;;;;;;;;25.70;95.90;;;;;;5072911;28;19924;-54
2022/06/21 05:19:19;;;;;;;;;;;25.70;95.70;;;;;;5073090;28;19923;-53
2022/06/21 05:21:47;;;;;;;;;;;25.70;95.90;;;;;;5072793;28;20215;-54
2022/06/21 05:24:13;;;;;;;;;;;25.70;95.80;;;;;;5073326;28;19909;-53
2022/06/21 05:26:51;;;;;;;;;;;25.70;95.80;;;;;;5055314;28;20366;-54
2022/06/21 05:29:21;;;;;;;;;;;25.70;95.90;;;;;;5075636;28;19912;-53
2022/06/21 05:31:49;;;;;;;;;;;25.70;95.70;;;;;;5077161;28;19974;-53
2022/06/21 05:34:18;;;;;;;;;;;25.70;95.80;;;;;;5076756;28;20027;-54
2022/06/21 05:36:56;;;;;;;;;;;25.70;95.70;;;;;;5076636;28;20271;-55
2022/06/21 05:39:24;;;;;;;;;;;25.70;95.90;;;;;;5076571;28;19970;-54
2022/06/21 05:41:51;;;;;;;;;;;25.70;95.90;;;;;;5076621;28;19912;-54
2022/06/21 05:44:35;;;;;;;;;;;25.70;95.90;;;;;;5076647;28;20270;-54
2022/06/21 05:47:16;;;;;;;;;;;25.70;95.90;;;;;;5076434;28;20278;-53
2022/06/21 05:49:42;;;;;;;;;;;25.70;95.70;;;;;;5076529;28;19908;-54
2022/06/21 05:52:11;;;;;;;;;;;25.70;95.70;;;;;;5058475;28;20370;-53
2022/06/21 05:54:41;;;;;;;;;;;25.70;95.70;;;;;;5076594;28;20299;-52
2022/06/21 05:57:09;;;;;;;;;;;25.70;95.90;;;;;;5076265;28;20015;-54
2022/06/21 05:59:34;;;;;;;;;;;25.70;95.80;;;;;;5075851;28;19913;-52
2022/06/21 06:02:03;;;;;;;;;;;25.70;95.80;;;;;;5076154;28;19916;-55
2022/06/21 06:04:31;;;;;;;;;;;25.70;95.70;;;;;;5075809;28;19908;-51
2022/06/21 06:06:57;;;;;;;;;;;25.70;95.90;;;;;;5076446;28;19962;-53
2022/06/21 06:09:25;;;;;;;;;;;25.70;95.60;;;;;;5076136;28;20020;-51
2022/06/21 06:12:00;;;;;;;;;;;25.70;95.80;;;;;;5076564;28;20054;-55
2022/06/21 06:14:43;;;;;;;;;;;25.70;95.90;;;;;;5075829;28;20377;-54
2022/06/21 06:17:17;;;;;;;;;;;25.70;95.70;;;;;;5075459;28;20026;-55
2022/06/21 06:20:04;;;;;;;;;;;25.70;95.80;;;;;;5076283;28;19912;-50
2022/06/21 06:22:36;;;;;;;;;;;25.70;95.70;;;;;;5075768;28;20026;-53
2022/06/21 06:25:06;;;;;;;;;;;25.70;95.80;;;;;;5075585;28;19924;-55
2022/06/21 06:27:45;;;;;;;;;;;25.70;95.60;;;;;;5075549;28;19909;-53
2022/06/21 06:30:12;;;;;;;;;;;25.70;95.90;;;;;;5075706;28;19909;-54
2022/06/21 06:32:41;;;;;;;;;;;25.70;95.90;;;;;;5075333;28;20382;-54
2022/06/21 06:35:33;;;;;;;;;;;25.70;95.90;;;;;;5075861;28;20428;-52
2022/06/21 06:37:59;;;;;;;;;;;25.70;95.90;;;;;;5070516;28;19912;-54
2022/06/21 06:40:26;;;;;;;;;;;25.70;95.90;;;;;;5056606;28;19913;-54
2022/06/21 06:42:59;;;;;;;;;;;25.70;95.90;;;;;;5075160;28;19916;-54
2022/06/21 06:45:28;;;;;;;;;;;25.70;95.90;;;;;;5075899;28;19915;-54
2022/06/21 06:48:03;;;;;;;;;;;25.70;95.70;;;;;;5075086;28;19916;-52
2022/06/21 06:50:54;;;;;;;;;;;25.70;95.60;;;;;;5075456;28;19915;-52
2022/06/21 06:53:27;;;;;;;;;;;25.70;95.60;;;;;;5075303;28;19914;-52
2022/06/21 06:55:58;;;;;;;;;;;25.60;95.60;;;;;;5074730;28;19921;-52
2022/06/21 06:58:23;;;;;;;;;;;25.70;95.80;;;;;;5074832;28;20036;-53
2022/06/21 07:00:54;;;;;;;;;;;25.70;95.90;;;;;;5074583;28;19990;-53
2022/06/21 07:03:47;;;;;;;;;;;25.70;95.90;;;;;;5075421;28;19908;-50
2022/06/21 07:06:16;;;;;;;;;;;25.70;95.90;;;;;;5037411;28;20005;-52
2022/06/21 07:08:51;;;;;;;;;;;25.70;95.90;;;;;;5074764;28;19914;-53
2022/06/21 07:11:16;;;;;;;;;;;25.70;95.80;;;;;;5075015;28;19947;-54
2022/06/21 07:13:42;;;;;;;;;;;25.70;95.90;;;;;;5056974;28;19973;-54
2022/06/21 07:16:11;;;;;;;;;;;25.70;95.90;;;;;;5074654;28;19919;-50
2022/06/21 07:18:43;;;;;;;;;;;25.70;95.80;;;;;;5074869;28;19916;-54
2022/06/21 07:21:09;;;;;;;;;;;25.80;95.80;;;;;;5074552;28;19973;-50
2022/06/21 07:23:34;;;;;;;;;;;25.70;95.60;;;;;;5074774;28;19908;-52
2022/06/21 07:26:04;;;;;;;;;;;25.70;95.60;;;;;;5074784;28;20015;-54
2022/06/21 07:28:29;;;;;;;;;;;25.70;95.60;;;;;;5074372;28;19908;-51
2022/06/21 07:30:56;;;;;;;;;;;25.70;95.70;;;;;;5075096;28;19919;-55
2022/06/21 07:33:28;;;;;;;;;;;25.70;95.70;;;;;;5074322;28;19908;-50
2022/06/21 07:35:57;;;;;;;;;;;25.70;95.70;;;;;;5056654;28;19908;-54
2022/06/21 07:38:26;;;;;;;;;;;25.70;95.70;;;;;;5074557;28;20355;-50
2022/06/21 07:41:12;;;;;;;;;;;25.70;95.70;;;;;;5074086;28;19912;-50
2022/06/21 07:43:41;;;;;;;;;;;25.70;95.60;;;;;;5073757;28;19940;-52
2022/06/21 07:46:08;;;;;;;;;;;25.70;95.40;;;;;;5074163;28;19923;-51
2022/06/21 07:48:37;;;;;;;;;;;25.70;95.60;;;;;;5074344;28;19913;-55
2022/06/21 07:51:15;;;;;;;;;;;25.70;95.50;;;;;;5073859;28;20317;-52
2022/06/21 07:53:46;;;;;;;;;;;25.70;95.60;;;;;;5074206;28;19959;-54
2022/06/21 07:56:12;;;;;;;;;;;25.70;95.50;;;;;;5074053;28;19925;-51
2022/06/21 07:58:41;;;;;;;;;;;25.80;95.70;;;;;;5073871;28;19919;-51
2022/06/21 08:07:00;;;;;;;;;;;25.70;95.70;;;;;;5074110;28;20370;-51
2022/06/21 08:10:00;;;;;;;;;;;25.80;95.60;;;;;;5074104;28;19909;-53
2022/06/21 08:12:26;;;;;;;;;;;25.80;95.70;;;;;;4972927;28;19914;-51
2022/06/21 08:14:52;;;;;;;;;;;25.80;95.70;;;;;;5052983;28;19908;-51
2022/06/21 08:17:38;;;;;;;;;;;25.80;95.80;;;;;;5073533;28;20340;-54
2022/06/21 08:20:15;;;;;;;;;;;25.80;95.60;;;;;;5073955;28;19913;-54
2022/06/21 08:22:47;;;;;;;;;;;25.80;95.40;;;;;;5073788;28;20298;-53
2022/06/21 08:25:24;;;;;;;;;;;25.80;95.60;;;;;;5073814;28;19909;-53
2022/06/21 08:27:50;;;;;;;;;;;25.80;95.70;;;;;;5073542;28;19995;-49
2022/06/21 08:30:21;;;;;;;;;;;25.80;95.70;;;;;;5073667;28;20112;-53
2022/06/21 08:32:53;;;;;;;;;;;25.80;95.70;;;;;;5073611;28;19912;-54
2022/06/21 08:35:24;;;;;;;;;;;25.80;95.70;;;;;;5073465;28;19909;-53
2022/06/21 08:37:49;;;;;;;;;;;25.80;95.70;;;;;;5073451;28;20235;-53
2022/06/21 08:40:15;;;;;;;;;;;25.80;95.50;;;;;;5073768;28;19916;-55
2022/06/21 08:42:59;;;;;;;;;;;25.80;95.40;;;;;;5073836;28;19908;-53
2022/06/21 08:45:43;;;;;;;;;;;25.80;95.40;;;;;;5073866;28;19909;-53
2022/06/21 08:48:09;;;;;;;;;;;25.90;95.70;;;;;;5073290;28;19953;-55
2022/06/21 08:50:53;;;;;;;;;;;25.90;95.80;;;;;;5073424;28;19909;-53
2022/06/21 08:53:24;;;;;;;;;;;25.90;95.70;;;;;;5073572;28;19909;-50
2022/06/21 08:55:54;;;;;;;;;;;25.90;95.70;;;;;;5073461;28;19927;-55
2022/06/21 08:58:22;;;;;;;;;;;25.90;95.60;;;;;;5073313;28;20001;-53
2022/06/21 09:01:11;;;;;;;;;;;25.90;95.60;;;;;;5073316;28;19920;-55
2022/06/21 09:03:49;;;;;;;;;;;25.90;95.70;;;;;;5061584;28;20390;-55
2022/06/21 09:06:17;;;;;;;;;;;25.90;95.50;;;;;;5077408;28;19916;-55
2022/06/21 09:08:57;;;;;;;;;;;25.90;95.50;;;;;;5077499;28;19909;-54
2022/06/21 09:11:28;;;;;;;;;;;25.90;95.50;;;;;;5059459;28;19908;-55
2022/06/21 09:13:54;;;;;;;;;;;25.90;95.70;;;;;;5077316;28;19932;-54
2022/06/21 09:16:39;;;;;;;;;;;25.90;95.60;;;;;;5076834;28;20370;-53
2022/06/21 09:19:19;;;;;;;;;;;25.90;95.50;;;;;;5076125;28;19912;-54
2022/06/21 09:22:00;;;;;;;;;;;25.90;95.50;;;;;;5059151;28;19913;-54
2022/06/21 09:24:31;;;;;;;;;;;25.90;95.40;;;;;;5077010;28;19908;-53
2022/06/21 09:27:06;;;;;;;;;;;25.90;95.40;;;;;;5077208;28;19923;-49
2022/06/21 09:29:39;;;;;;;;;;;25.90;95.70;;;;;;5076889;28;19908;-55
2022/06/21 09:32:14;;;;;;;;;;;25.90;95.60;;;;;;5077017;28;19930;-52
2022/06/21 09:34:54;;;;;;;;;;;25.90;95.60;;;;;;5076943;28;19908;-53
2022/06/21 09:37:39;;;;;;;;;;;25.90;95.60;;;;;;5058960;28;19920;-55
2022/06/21 09:40:12;;;;;;;;;;;25.90;95.50;;;;;;5076702;28;19977;-52
2022/06/21 09:42:58;;;;;;;;;;;25.90;95.60;;;;;;5076461;28;19916;-50
2022/06/21 09:45:27;;;;;;;;;;;25.90;95.60;;;;;;5076454;28;20283;-56
2022/06/21 09:47:55;;;;;;;;;;;25.90;95.60;;;;;;5076471;28;19908;-56
2022/06/21 09:50:30;;;;;;;;;;;25.90;95.70;;;;;;5076835;28;19915;-50
2022/06/21 09:53:05;;;;;;;;;;;25.90;95.70;;;;;;5076710;28;19962;-53
2022/06/21 09:55:49;;;;;;;;;;;25.90;95.60;;;;;;5076232;28;20423;-51
2022/06/21 09:58:18;;;;;;;;;;;25.90;95.70;;;;;;5058293;28;19962;-50
2022/06/21 10:00:43;;;;;;;;;;;25.90;95.60;;;;;;5076556;28;19912;-55
2022/06/21 10:03:29;;;;;;;;;;;25.90;95.50;;;;;;5076503;28;19908;-51
2022/06/21 10:05:59;;;;;;;;;;;25.90;95.60;;;;;;5025139;28;20353;-55
2022/06/21 10:08:40;;;;;;;;;;;25.90;95.60;;;;;;5076493;28;19938;-54
2022/06/21 10:11:18;;;;;;;;;;;25.90;95.70;;;;;;5076382;28;20022;-50
2022/06/21 10:13:44;;;;;;;;;;;25.90;95.70;;;;;;5076206;28;20375;-55
2022/06/21 10:16:24;;;;;;;;;;;25.90;95.70;;;;;;5076089;28;19912;-54
2022/06/21 10:18:50;;;;;;;;;;;25.90;95.60;;;;;;5075743;28;19974;-55
2022/06/21 10:21:15;;;;;;;;;;;25.90;95.60;;;;;;5076236;28;20363;-55
2022/06/21 10:23:41;;;;;;;;;;;25.90;95.50;;;;;;5075956;28;20302;-54
2022/06/21 10:26:18;;;;;;;;;;;25.90;95.60;;;;;;5076006;28;19951;-54
2022/06/21 10:28:44;;;;;;;;;;;25.90;95.70;;;;;;5075627;28;19916;-53
2022/06/21 10:31:33;;;;;;;;;;;25.90;95.60;;;;;;5075743;28;19916;-54
2022/06/21 10:34:17;;;;;;;;;;;25.90;95.70;;;;;;5062427;28;19991;-55
2022/06/21 10:36:48;;;;;;;;;;;25.90;95.50;;;;;;5075473;28;20252;-53
2022/06/21 10:39:22;;;;;;;;;;;25.90;95.50;;;;;;5075220;28;19916;-54
2022/06/21 10:44:53;;;;;;;;;;;25.90;95.70;;;;;;5075240;28;19957;-55
2022/06/21 10:47:28;;;;;;;;;;;25.90;95.70;;;;;;5075227;28;20260;-53
2022/06/21 10:50:05;;;;;;;;;;;25.90;95.50;;;;;;5075225;28;19909;-54
2022/06/21 10:52:51;;;;;;;;;;;25.90;95.60;;;;;;5074981;28;19908;-53
2022/06/21 10:55:19;;;;;;;;;;;25.90;95.70;;;;;;5072802;28;19924;-54
2022/06/21 10:58:00;;;;;;;;;;;25.90;95.70;;;;;;5075171;28;19916;-53
2022/06/21 11:03:31;;;;;;;;;;;25.90;95.60;;;;;;5075099;28;19914;-54
2022/06/21 11:06:02;;;;;;;;;;;25.90;95.60;;;;;;5075195;28;19920;-55
2022/06/21 11:08:30;;;;;;;;;;;25.90;95.50;;;;;;5074844;28;19908;-54
2022/06/21 11:11:00;;;;;;;;;;;26.00;95.70;;;;;;5075117;28;19912;-53
2022/06/21 11:13:33;;;;;;;;;;;26.00;95.60;;;;;;5074931;28;19909;-55
2022/06/21 11:16:17;;;;;;;;;;;26.00;95.50;;;;;;5074750;28;19962;-52
2022/06/21 11:18:46;;;;;;;;;;;26.00;95.60;;;;;;5074950;28;19912;-53
2022/06/21 11:21:12;;;;;;;;;;;26.00;95.70;;;;;;5074958;28;19919;-53
2022/06/21 11:23:52;;;;;;;;;;;25.90;95.60;;;;;;5056784;28;19908;-55
2022/06/21 11:26:21;;;;;;;;;;;25.90;95.60;;;;;;5073901;28;20317;-52
2022/06/21 11:28:50;;;;;;;;;;;25.90;95.70;;;;;;5074583;28;19956;-55
2022/06/21 11:31:21;;;;;;;;;;;25.90;95.60;;;;;;5074508;28;20389;-53
2022/06/21 11:33:54;;;;;;;;;;;25.90;95.70;;;;;;5074605;28;19948;-52
2022/06/21 11:36:32;;;;;;;;;;;25.90;95.60;;;;;;5074503;28;19909;-54
2022/06/21 11:39:16;;;;;;;;;;;25.90;95.60;;;;;;5074126;28;20010;-56
2022/06/21 11:42:06;;;;;;;;;;;25.90;95.70;;;;;;5074431;28;19913;-56
2022/06/21 11:44:42;;;;;;;;;;;25.90;95.80;;;;;;5074368;28;20240;-53
2022/06/21 11:47:10;;;;;;;;;;;25.90;95.70;;;;;;5074431;28;19983;-51
2022/06/21 11:49:48;;;;;;;;;;;25.90;95.80;;;;;;5073988;28;19940;-51
2022/06/21 11:52:22;;;;;;;;;;;25.90;95.70;;;;;;5056361;28;20279;-55
2022/06/21 11:54:50;;;;;;;;;;;25.90;95.70;;;;;;5073932;28;19908;-54
2022/06/21 11:57:37;;;;;;;;;;;25.90;95.70;;;;;;5074381;28;19921;-55
2022/06/21 12:00:05;;;;;;;;;;;25.90;95.60;;;;;;5073887;28;19920;-50
2022/06/21 12:02:36;;;;;;;;;;;25.90;95.60;;;;;;5074007;28;19947;-54
2022/06/21 12:05:16;;;;;;;;;;;26.00;95.60;;;;;;5073810;28;19909;-49
2022/06/21 12:08:01;;;;;;;;;;;25.90;95.60;;;;;;5074114;28;19982;-52
2022/06/21 12:10:36;;;;;;;;;;;25.90;95.70;;;;;;5073804;28;20011;-51
2022/06/21 12:13:07;;;;;;;;;;;25.90;95.80;;;;;;5073747;28;19909;-55
2022/06/21 12:15:36;;;;;;;;;;;25.90;95.70;;;;;;5073535;28;19908;-53
2022/06/21 12:18:22;;;;;;;;;;;25.90;95.80;;;;;;5073545;28;19913;-53
2022/06/21 12:20:53;;;;;;;;;;;25.90;95.80;;;;;;5073537;28;19921;-51
2022/06/21 12:23:30;;;;;;;;;;;25.90;95.70;;;;;;5073869;28;19943;-51
2022/06/21 12:25:56;;;;;;;;;;;25.90;95.80;;;;;;5055798;28;19908;-52
2022/06/21 12:28:22;;;;;;;;;;;25.90;95.80;;;;;;5073943;28;19961;-55
2022/06/21 12:30:48;;;;;;;;;;;25.90;95.80;;;;;;5055783;28;19909;-53
2022/06/21 12:33:15;;;;;;;;;;;25.90;95.80;;;;;;5073575;28;19953;-55
2022/06/21 12:35:56;;;;;;;;;;;25.90;95.80;;;;;;5073418;28;19908;-53
2022/06/21 12:38:23;;;;;;;;;;;25.90;95.90;;;;;;5072690;28;19913;-55
2022/06/21 12:41:02;;;;;;;;;;;25.90;95.70;;;;;;5073497;28;19912;-53
2022/06/21 12:43:30;;;;;;;;;;;25.90;95.80;;;;;;5073348;28;20045;-52
2022/06/21 12:46:02;;;;;;;;;;;25.90;95.80;;;;;;5073268;28;19916;-54
2022/06/21 12:48:36;;;;;;;;;;;25.90;95.90;;;;;;5073344;28;19947;-55
2022/06/21 12:51:10;;;;;;;;;;;25.90;95.90;;;;;;5073422;28;19908;-54
2022/06/21 12:53:35;;;;;;;;;;;25.90;95.90;;;;;;5073278;28;19909;-56
2022/06/21 12:56:19;;;;;;;;;;;25.90;95.90;;;;;;5073241;28;19920;-54
2022/06/21 12:58:56;;;;;;;;;;;25.90;95.90;;;;;;5073323;28;20355;-55
2022/06/21 13:01:24;;;;;;;;;;;25.90;95.90;;;;;;5073216;28;19920;-56
2022/06/21 13:04:02;;;;;;;;;;;25.90;95.90;;;;;;5073350;28;19909;-54
2022/06/21 13:06:44;;;;;;;;;;;25.90;95.90;;;;;;5073155;28;19909;-51
2022/06/21 13:09:17;;;;;;;;;;;25.90;95.90;;;;;;5073318;28;19915;-52
2022/06/21 13:11:48;;;;;;;;;;;25.90;95.90;;;;;;5072820;28;19931;-52
2022/06/21 13:14:19;;;;;;;;;;;25.90;95.90;;;;;;5073276;28;19909;-54
2022/06/21 13:16:51;;;;;;;;;;;25.90;95.90;;;;;;5072891;28;19998;-53
2022/06/21 13:19:35;;;;;;;;;;;25.90;95.90;;;;;;5072973;28;19923;-52
2022/06/21 13:22:12;;;;;;;;;;;25.90;95.80;;;;;;5072866;28;19920;-55
2022/06/21 13:24:57;;;;;;;;;;;25.90;95.90;;;;;;5072772;28;19908;-53
2022/06/21 13:27:28;;;;;;;;;;;25.90;95.90;;;;;;5072944;28;19909;-53
2022/06/21 13:30:12;;;;;;;;;;;25.90;95.90;;;;;;5072726;28;19944;-53
2022/06/21 13:32:45;;;;;;;;;;;25.90;95.80;;;;;;5072971;28;19958;-52
2022/06/21 13:35:30;;;;;;;;;;;25.90;95.90;;;;;;5072875;28;19954;-53
2022/06/21 13:37:59;;;;;;;;;;;25.90;95.90;;;;;;5072915;28;19912;-54
2022/06/21 13:40:46;;;;;;;;;;;25.90;95.80;;;;;;5073131;28;19913;-53
2022/06/21 13:43:14;;;;;;;;;;;25.90;95.80;;;;;;5072729;28;19912;-54
2022/06/21 13:45:49;;;;;;;;;;;25.90;95.90;;;;;;5073053;28;20240;-56
2022/06/21 13:48:18;;;;;;;;;;;25.90;95.80;;;;;;5072606;28;19942;-53
2022/06/21 13:50:59;;;;;;;;;;;25.80;95.90;;;;;;5075585;28;19994;-55
2022/06/21 13:53:33;;;;;;;;;;;25.90;95.90;;;;;;5058673;28;20305;-50
2022/06/21 13:56:05;;;;;;;;;;;25.90;95.80;;;;;;5076417;28;19974;-54
2022/06/21 13:58:35;;;;;;;;;;;25.90;95.90;;;;;;5076183;28;19913;-52
2022/06/21 14:01:05;;;;;;;;;;;25.80;95.80;;;;;;5076403;28;20365;-56
2022/06/21 14:03:37;;;;;;;;;;;25.90;95.90;;;;;;5076260;28;20348;-57
2022/06/21 14:06:13;;;;;;;;;;;25.80;95.90;;;;;;5076259;28;20031;-54
2022/06/21 14:08:45;;;;;;;;;;;25.90;95.90;;;;;;5076055;28;19915;-53
2022/06/21 14:11:11;;;;;;;;;;;25.90;95.90;;;;;;5076444;28;19908;-55
2022/06/21 14:13:46;;;;;;;;;;;25.90;95.90;;;;;;5075930;28;19913;-53
2022/06/21 14:16:20;;;;;;;;;;;25.90;95.90;;;;;;5075927;28;19912;-55
2022/06/21 14:18:45;;;;;;;;;;;25.90;95.90;;;;;;5075870;28;19913;-54
2022/06/21 14:21:18;;;;;;;;;;;25.90;95.90;;;;;;5075589;28;19937;-53
2022/06/21 14:23:47;;;;;;;;;;;25.80;95.90;;;;;;5075924;28;19913;-51
2022/06/21 14:26:17;;;;;;;;;;;25.90;96.00;;;;;;5075360;28;19909;-55
2022/06/21 14:29:04;;;;;;;;;;;25.90;96.00;;;;;;5075803;28;19909;-54
2022/06/21 14:31:30;;;;;;;;;;;25.90;96.00;;;;;;5075746;28;19908;-54
2022/06/21 14:34:14;;;;;;;;;;;25.80;95.90;;;;;;5075572;28;19915;-52
2022/06/21 14:36:42;;;;;;;;;;;25.80;96.00;;;;;;5075261;28;20418;-54
2022/06/21 14:39:25;;;;;;;;;;;25.80;96.00;;;;;;5075017;28;19912;-52
2022/06/21 14:41:56;;;;;;;;;;;25.80;96.00;;;;;;5057623;28;19912;-50
2022/06/21 14:44:24;;;;;;;;;;;25.80;95.90;;;;;;5075792;28;19908;-55
2022/06/21 14:46:56;;;;;;;;;;;25.90;95.90;;;;;;5075331;28;19995;-54
2022/06/21 14:49:27;;;;;;;;;;;25.80;95.90;;;;;;5075500;28;19908;-54
2022/06/21 14:51:53;;;;;;;;;;;25.90;96.00;;;;;;5075222;28;20278;-54
2022/06/21 14:54:28;;;;;;;;;;;25.80;95.90;;;;;;5075069;28;20371;-54
2022/06/21 14:57:12;;;;;;;;;;;25.80;95.90;;;;;;5056886;28;19920;-54
2022/06/21 14:59:55;;;;;;;;;;;25.90;96.00;;;;;;5074875;28;20358;-53
2022/06/21 15:02:49;;;;;;;;;;;25.80;96.00;;;;;;5074340;28;20294;-55
2022/06/21 15:05:41;;;;;;;;;;;25.80;95.90;;;;;;4985921;28;19911;-54
2022/06/21 15:08:08;;;;;;;;;;;25.80;95.90;;;;;;5069550;28;20003;-54
2022/06/21 15:10:39;;;;;;;;;;;25.80;95.90;;;;;;5074908;28;19916;-55